Time;durP1;ratioP1;P1;durP2;ratioP2;P2;SDS_P1;SDS_P2;PMS_P1;PMS_P2;Temp;Humidity;BMP_temperature;BMP_pressure;BME280_temperature;BME280_humidity;BME280_pressure;Samples;Min_cycle;Max_cycle;Signal;HPM_P1;HPM_P2
2023/01/25 00:01:36;;;;;;;16.70;10.70;;;;;;;0.66;82.35;103043.40;106842;1257;74479;-78
2023/01/25 00:04:03;;;;;;;15.00;10.60;;;;;;;0.66;82.63;103033.83;107673;1257;71397;-76
2023/01/25 00:06:30;;;;;;;14.50;10.20;;;;;;;0.65;82.83;103031.23;107515;1257;71561;-77
2023/01/25 00:08:57;;;;;;;16.70;11.10;;;;;;;0.63;82.52;103025.40;107350;1257;61366;-76
2023/01/25 00:11:23;;;;;;;16.60;11.70;;;;;;;0.61;82.80;103019.01;107784;1257;59468;-76
2023/01/25 00:13:55;;;;;;;18.00;12.10;;;;;;;0.62;82.84;103021.94;106990;1257;73258;-76
2023/01/25 00:16:23;;;;;;;16.40;11.50;;;;;;;0.65;82.88;103020.63;107272;1257;70219;-77
2023/01/25 00:18:50;;;;;;;18.90;12.80;;;;;;;0.66;83.04;103017.27;106779;1260;72970;-74
2023/01/25 00:21:20;;;;;;;18.80;12.30;;;;;;;0.67;83.18;103015.84;106856;1257;62663;-76
2023/01/25 00:23:48;;;;;;;17.60;11.70;;;;;;;0.67;83.17;103006.45;107496;1257;61271;-78
2023/01/25 00:26:15;;;;;;;16.20;11.30;;;;;;;0.67;83.02;103006.09;107154;1257;74779;-76
2023/01/25 00:28:42;;;;;;;15.80;11.10;;;;;;;0.65;83.36;103003.90;108791;1257;71687;-76
2023/01/25 00:31:15;;;;;;;16.10;11.00;;;;;;;0.63;83.48;103002.58;108393;1257;73415;-77
2023/01/25 00:34:36;;;;;;;15.70;10.80;;;;;;;0.63;83.54;102998.77;108825;1257;61309;-75
2023/01/25 00:37:13;;;;;;;16.70;11.70;;;;;;;0.62;83.52;102998.79;107526;1261;61244;-76
2023/01/25 00:39:40;;;;;;;18.00;12.10;;;;;;;0.64;83.65;102993.86;108400;1257;75958;-76
2023/01/25 00:42:11;;;;;;;16.90;11.90;;;;;;;0.66;83.81;102991.32;107079;1258;69037;-76
2023/01/25 00:44:38;;;;;;;16.30;11.60;;;;;;;0.67;83.76;102989.89;106850;1258;73297;-76
2023/01/25 00:47:06;;;;;;;18.60;12.10;;;;;;;0.66;83.89;102990.29;106967;1257;61182;-76
2023/01/25 00:49:33;;;;;;;16.80;12.30;;;;;;;0.65;83.96;102989.30;106923;1260;61212;-75
2023/01/25 00:52:00;;;;;;;17.80;11.90;;;;;;;0.65;84.16;102993.63;106578;1257;73521;-76
2023/01/25 00:54:27;;;;;;;18.60;12.80;;;;;;;0.64;84.37;102990.02;106511;1264;72207;-76
2023/01/25 00:56:55;;;;;;;19.90;13.30;;;;;;;0.63;84.47;102990.55;106639;1257;70565;-76
2023/01/25 00:59:23;;;;;;;17.70;12.30;;;;;;;0.63;84.61;102987.98;106599;1257;62343;-76
2023/01/25 01:01:51;;;;;;;17.70;11.70;;;;;;;0.61;84.58;102983.31;107000;1257;62085;-77
2023/01/25 01:04:19;;;;;;;17.00;11.70;;;;;;;0.59;84.48;102980.61;106644;1257;74413;-78
2023/01/25 01:06:47;;;;;;;17.50;12.00;;;;;;;0.56;84.58;102979.66;106526;1260;69242;-77
2023/01/25 01:09:17;;;;;;;17.40;11.80;;;;;;;0.56;84.75;102976.87;107077;1257;72613;-76
2023/01/25 01:11:44;;;;;;;15.50;10.80;;;;;;;0.57;84.61;102973.01;106741;1257;61237;-77
2023/01/25 01:14:11;;;;;;;15.20;10.50;;;;;;;0.57;84.69;102972.50;106555;1258;61265;-78
2023/01/25 01:16:41;;;;;;;15.90;11.30;;;;;;;0.56;84.84;102980.00;106545;1260;73152;-77
2023/01/25 01:19:08;;;;;;;17.30;11.80;;;;;;;0.57;84.88;102980.17;106901;1257;71232;-76
2023/01/25 01:21:36;;;;;;;19.00;12.30;;;;;;;0.58;84.94;102980.98;107107;1257;71599;-75
2023/01/25 01:24:04;;;;;;;17.30;11.40;;;;;;;0.59;85.13;102980.59;106516;1257;61325;-78
2023/01/25 01:26:31;;;;;;;16.10;11.50;;;;;;;0.60;84.87;102978.29;106414;1257;61326;-77
2023/01/25 01:28:59;;;;;;;19.30;12.80;;;;;;;0.61;84.97;102973.40;106770;1260;74494;-76
2023/01/25 01:31:26;;;;;;;17.60;12.20;;;;;;;0.64;84.98;102966.52;106830;1257;70930;-77
2023/01/25 01:33:56;;;;;;;20.00;11.70;;;;;;;0.64;85.06;102960.59;106610;1262;71436;-78
2023/01/25 01:36:26;;;;;;;20.00;12.50;;;;;;;0.61;85.14;102960.48;106776;1260;61239;-77
2023/01/25 01:38:53;;;;;;;18.70;12.90;;;;;;;0.59;85.16;102962.31;106687;1257;61455;-75
2023/01/25 01:41:20;;;;;;;18.20;12.40;;;;;;;0.58;85.24;102961.64;106564;1258;73834;-75
2023/01/25 01:43:51;;;;;;;18.60;12.10;;;;;;;0.62;85.20;102960.66;106618;1257;71807;-77
2023/01/25 01:46:36;;;;;;;20.00;13.40;;;;;;;0.64;85.42;102957.09;106402;1261;72735;-76
2023/01/25 01:49:06;;;;;;;20.10;13.10;;;;;;;0.64;85.30;102949.80;106692;1257;61250;-76
2023/01/25 01:52:01;;;;;;;18.90;12.80;;;;;;;0.62;85.27;102941.68;106642;1257;61176;-75
2023/01/25 01:54:59;;;;;;;22.10;14.20;;;;;;;0.58;85.52;102937.09;107158;1257;75302;-76
2023/01/25 01:57:51;;;;;;;22.70;14.90;;;;;;;0.56;85.67;102936.30;106577;1257;71472;-76
2023/01/25 02:00:33;;;;;;;21.20;14.10;;;;;;;0.56;85.80;102933.71;106810;1257;72421;-77
2023/01/25 02:03:00;;;;;;;22.90;14.90;;;;;;;0.54;86.25;102928.71;107148;1257;62417;-75
2023/01/25 02:05:39;;;;;;;21.80;14.50;;;;;;;0.51;86.64;102927.11;106980;1257;61298;-76
2023/01/25 02:08:10;;;;;;;22.80;14.80;;;;;;;0.49;86.64;102926.83;107024;1259;74422;-77
2023/01/25 02:10:37;;;;;;;20.20;14.00;;;;;;;0.48;86.83;102932.23;106835;1257;72330;-76
2023/01/25 02:13:04;;;;;;;23.30;15.20;;;;;;;0.49;86.87;102930.98;107321;1257;71171;-75
2023/01/25 02:15:57;;;;;;;23.50;14.80;;;;;;;0.50;86.89;102926.80;106880;1262;61250;-76
2023/01/25 02:18:24;;;;;;;22.30;14.40;;;;;;;0.52;87.02;102927.59;106775;1257;61228;-77
2023/01/25 02:20:53;;;;;;;22.20;15.00;;;;;;;0.52;87.26;102926.35;107080;1259;74530;-76
2023/01/25 02:23:35;;;;;;;23.00;15.00;;;;;;;0.51;87.04;102924.84;107442;1257;70942;-75
2023/01/25 02:26:06;;;;;;;22.40;14.40;;;;;;;0.48;87.12;102925.09;107157;1257;71108;-77
2023/01/25 02:28:43;;;;;;;22.90;14.60;;;;;;;0.48;87.41;102926.88;107675;1259;61241;-76
2023/01/25 02:31:10;;;;;;;23.60;14.40;;;;;;;0.49;87.40;102925.40;107005;1257;59857;-77
2023/01/25 02:33:37;;;;;;;19.90;12.80;;;;;;;0.52;87.29;102926.88;107337;1257;73965;-76
2023/01/25 02:36:06;;;;;;;18.20;12.10;;;;;;;0.51;87.08;102928.12;106902;1257;70161;-78
2023/01/25 02:38:37;;;;;;;17.00;10.80;;;;;;;0.51;87.02;102928.11;107167;1257;71881;-76
2023/01/25 02:41:10;;;;;;;16.10;10.70;;;;;;;0.51;86.78;102931.45;106855;1260;61353;-76
2023/01/25 02:43:37;;;;;;;16.50;10.30;;;;;;;0.48;86.55;102933.80;106728;1259;61208;-76
2023/01/25 02:46:26;;;;;;;16.00;9.90;;;;;;;0.45;86.34;102930.79;106959;1259;73496;-75
2023/01/25 02:48:55;;;;;;;14.80;9.60;;;;;;;0.44;86.37;102924.38;107072;1257;69750;-76
2023/01/25 02:51:23;;;;;;;13.60;9.50;;;;;;;0.41;86.44;102922.05;106887;1259;70882;-76
2023/01/25 02:53:51;;;;;;;14.70;9.90;;;;;;;0.40;86.59;102915.98;106783;1259;61958;-76
2023/01/25 02:56:18;;;;;;;14.60;10.20;;;;;;;0.42;86.71;102908.27;106979;1257;61238;-76
2023/01/25 02:58:45;;;;;;;13.40;9.10;;;;;;;0.45;86.85;102903.45;106891;1257;73743;-78
2023/01/25 03:01:13;;;;;;;14.10;9.10;;;;;;;0.45;86.74;102901.90;106818;1257;69669;-78
2023/01/25 03:03:43;;;;;;;14.50;9.60;;;;;;;0.44;86.82;102898.27;106913;1262;70880;-76
2023/01/25 03:06:10;;;;;;;12.80;8.60;;;;;;;0.44;86.77;102894.27;107460;1257;60374;-77
2023/01/25 03:08:37;;;;;;;13.60;9.10;;;;;;;0.43;86.85;102893.27;106910;1257;62087;-77
2023/01/25 03:11:06;;;;;;;13.30;9.00;;;;;;;0.39;86.84;102889.02;106948;1259;74378;-76
2023/01/25 03:13:34;;;;;;;12.50;8.80;;;;;;;0.38;86.92;102886.80;106822;1258;71014;-77
2023/01/25 03:16:06;;;;;;;13.20;8.90;;;;;;;0.38;86.92;102883.33;107120;1259;71159;-75
2023/01/25 03:18:34;;;;;;;12.50;8.70;;;;;;;0.38;87.11;102883.34;106978;1259;62049;-80
2023/01/25 03:21:11;;;;;;;12.60;8.30;;;;;;;0.37;87.16;102883.17;107106;1257;61310;-76
2023/01/25 03:23:38;;;;;;;13.20;8.50;;;;;;;0.35;87.08;102883.23;107336;1257;74917;-77
2023/01/25 03:26:11;;;;;;;13.40;9.10;;;;;;;0.34;87.22;102882.77;107691;1257;70964;-77
2023/01/25 03:28:39;;;;;;;12.90;8.70;;;;;;;0.34;87.40;102881.89;108779;1257;72727;-77
2023/01/25 03:31:08;;;;;;;15.80;8.90;;;;;;;0.35;87.31;102882.90;108771;1257;61921;-78
2023/01/25 03:33:35;;;;;;;14.40;9.10;;;;;;;0.36;87.41;102880.97;107511;1257;61237;-77
2023/01/25 03:36:03;;;;;;;15.10;9.50;;;;;;;0.34;87.50;102881.91;107573;1257;74193;-77
2023/01/25 03:38:31;;;;;;;14.40;9.20;;;;;;;0.35;87.70;102883.96;107817;1259;71222;-76
2023/01/25 03:40:58;;;;;;;13.20;8.90;;;;;;;0.35;87.48;102880.83;107140;1257;71462;-76
2023/01/25 03:43:26;;;;;;;15.90;9.60;;;;;;;0.34;87.77;102874.59;107152;1258;60864;-76
2023/01/25 03:45:57;;;;;;;14.00;9.40;;;;;;;0.34;87.81;102869.19;106920;1257;287320;-77
2023/01/25 03:48:26;;;;;;;14.30;8.90;;;;;;;0.36;87.93;102865.30;107014;1261;74291;-76
2023/01/25 03:50:56;;;;;;;14.50;9.60;;;;;;;0.37;88.05;102859.18;107051;1260;70243;-76
2023/01/25 03:53:30;;;;;;;14.50;9.60;;;;;;;0.36;88.16;102857.99;107093;1257;71230;-77
2023/01/25 03:56:00;;;;;;;14.20;9.40;;;;;;;0.33;88.08;102857.73;107163;1259;61289;-77
2023/01/25 03:58:28;;;;;;;16.20;10.10;;;;;;;0.31;88.20;102857.11;106880;1259;61349;-77
2023/01/25 04:00:58;;;;;;;16.90;9.70;;;;;;;0.28;88.48;102850.64;106911;1257;73621;-77
2023/01/25 04:03:27;;;;;;;15.40;9.10;;;;;;;0.22;88.87;102847.36;106894;1259;71337;-76
2023/01/25 04:06:06;;;;;;;16.20;9.90;;;;;;;0.18;89.05;102848.52;106951;1259;72535;-77
2023/01/25 04:08:33;;;;;;;14.90;9.40;;;;;;;0.17;89.16;102848.23;106865;1262;61364;-76
2023/01/25 04:11:05;;;;;;;13.20;8.60;;;;;;;0.15;89.24;102845.70;107359;1257;61135;-76
2023/01/25 04:13:36;;;;;;;13.90;8.10;;;;;;;0.10;89.28;102847.25;107273;1257;74807;-77
2023/01/25 04:16:05;;;;;;;15.40;8.90;;;;;;;0.07;89.27;102842.13;107599;1259;70577;-76
2023/01/25 04:18:33;;;;;;;12.40;7.80;;;;;;;0.05;89.44;102837.86;106838;1258;73204;-79
2023/01/25 04:21:00;;;;;;;13.10;8.80;;;;;;;0.01;89.52;102829.14;106986;1261;61324;-76
2023/01/25 04:23:27;;;;;;;15.30;8.40;;;;;;;-0.03;89.82;102825.25;107027;1257;61149;-76
2023/01/25 04:26:04;;;;;;;12.80;8.30;;;;;;;-0.07;90.13;102823.83;106598;1259;74979;-76
2023/01/25 04:28:32;;;;;;;12.80;8.60;;;;;;;-0.10;90.29;102816.98;106676;1259;71722;-76
2023/01/25 04:30:59;;;;;;;15.00;9.60;;;;;;;-0.13;90.42;102817.79;106820;1257;72695;-75
2023/01/25 04:33:26;;;;;;;16.80;9.80;;;;;;;-0.16;90.95;102818.62;107306;1257;61213;-77
2023/01/25 04:35:53;;;;;;;15.40;9.40;;;;;;;-0.18;91.19;102818.15;106831;1257;61291;-77
2023/01/25 04:38:23;;;;;;;14.80;9.70;;;;;;;-0.22;91.39;102817.56;107000;1258;73240;-77
2023/01/25 04:40:51;;;;;;;15.50;8.60;;;;;;;-0.22;91.10;102822.27;107110;1257;70940;-77
2023/01/25 04:43:19;;;;;;;12.20;7.90;;;;;;;-0.23;91.46;102820.74;107082;1257;71635;-77
2023/01/25 04:45:46;;;;;;;13.10;8.30;;;;;;;-0.25;91.47;102816.80;106875;1258;61267;-77
2023/01/25 04:48:13;;;;;;;13.60;8.30;;;;;;;-0.26;91.75;102815.45;106894;1259;61180;-76
2023/01/25 04:50:41;;;;;;;11.10;7.50;;;;;;;-0.30;91.76;102812.30;106795;1259;74700;-77
2023/01/25 04:53:09;;;;;;;13.30;8.20;;;;;;;-0.33;91.77;102814.84;107260;1258;71178;-77
2023/01/25 04:55:37;;;;;;;14.80;8.60;;;;;;;-0.33;91.77;102816.91;106728;1257;72518;-78
2023/01/25 04:58:04;;;;;;;15.50;8.70;;;;;;;-0.33;91.81;102813.07;106990;1258;61354;-76
2023/01/25 05:00:31;;;;;;;12.30;7.90;;;;;;;-0.34;91.96;102812.77;106811;1257;61298;-76
2023/01/25 05:02:58;;;;;;;13.50;8.30;;;;;;;-0.34;91.82;102812.08;106813;1259;73491;-78
2023/01/25 05:05:25;;;;;;;12.80;7.50;;;;;;;-0.32;91.94;102807.32;107055;1258;70892;-77
2023/01/25 05:07:52;;;;;;;12.00;7.00;;;;;;;-0.30;91.91;102807.09;106907;1257;73609;-76
2023/01/25 05:10:19;;;;;;;11.20;6.90;;;;;;;-0.30;91.78;102805.50;107417;1259;61293;-75
2023/01/25 05:12:46;;;;;;;11.00;6.80;;;;;;;-0.28;91.86;102802.66;107018;1259;60580;-75
2023/01/25 05:15:13;;;;;;;9.50;5.60;;;;;;;-0.28;91.66;102806.48;107365;1259;74935;-76
2023/01/25 05:17:43;;;;;;;9.20;5.30;;;;;;;-0.31;91.48;102801.91;107034;1259;70931;-76
2023/01/25 05:20:11;;;;;;;9.20;5.70;;;;;;;-0.34;91.66;102797.13;106897;1258;70409;-76
2023/01/25 05:22:38;;;;;;;9.70;6.30;;;;;;;-0.37;91.77;102795.50;106782;1258;61369;-77
2023/01/25 05:26:59;;;;;;;10.30;6.10;;;;;;;-0.42;92.09;102792.67;107058;1257;61240;-75
2023/01/25 05:27:52;;;;;;;11.70;6.30;;;;;;;-0.48;92.48;102789.60;107137;1257;73412;-77
2023/01/25 05:30:19;;;;;;;10.40;6.70;;;;;;;-0.49;92.42;102788.94;106850;1259;69959;-77
2023/01/25 05:32:47;;;;;;;11.50;6.30;;;;;;;-0.49;92.62;102784.77;106931;1259;71784;-77
2023/01/25 05:35:15;;;;;;;11.00;6.70;;;;;;;-0.47;92.72;102787.65;107338;1262;61692;-76
2023/01/25 05:37:42;;;;;;;9.70;6.20;;;;;;;-0.47;92.90;102786.77;107197;1259;61241;-77
2023/01/25 05:40:10;;;;;;;11.10;6.00;;;;;;;-0.44;92.89;102780.78;107018;1258;73543;-76
2023/01/25 05:42:37;;;;;;;10.60;6.70;;;;;;;-0.44;92.95;102773.81;107096;1257;71004;-76
2023/01/25 05:45:04;;;;;;;10.90;6.50;;;;;;;-0.42;92.74;102770.08;107135;1257;71121;-76
2023/01/25 05:47:32;;;;;;;11.20;6.90;;;;;;;-0.39;92.97;102775.73;107004;1257;61474;-75
2023/01/25 05:49:58;;;;;;;12.50;7.70;;;;;;;-0.38;93.00;102776.92;106985;1258;62446;-77
2023/01/25 05:52:26;;;;;;;12.40;7.60;;;;;;;-0.34;92.97;102781.31;107041;1257;73396;-76
2023/01/25 05:54:53;;;;;;;11.90;7.10;;;;;;;-0.30;92.79;102782.73;106885;1257;71106;-77
2023/01/25 05:57:20;;;;;;;10.20;6.10;;;;;;;-0.26;92.65;102782.77;107055;1258;71196;-76
2023/01/25 05:59:47;;;;;;;11.30;6.50;;;;;;;-0.23;92.58;102775.69;106846;1257;62188;-77
2023/01/25 06:02:16;;;;;;;10.60;6.70;;;;;;;-0.19;92.48;102774.86;107362;1257;61533;-76
2023/01/25 06:04:44;;;;;;;10.70;6.50;;;;;;;-0.16;92.49;102770.42;107506;1258;74685;-76
2023/01/25 06:07:10;;;;;;;11.20;6.60;;;;;;;-0.15;92.18;102773.52;107166;1257;71221;-75
2023/01/25 06:09:37;;;;;;;10.50;6.20;;;;;;;-0.13;92.22;102768.77;107229;1257;59152;-76
2023/01/25 06:12:05;;;;;;;9.90;6.20;;;;;;;-0.11;92.21;102769.20;107118;1257;61373;-77
2023/01/25 06:14:32;;;;;;;11.60;6.60;;;;;;;-0.10;92.07;102765.51;107032;1257;61152;-76
2023/01/25 06:16:59;;;;;;;11.50;6.50;;;;;;;-0.06;92.15;102764.84;107266;1259;75100;-75
2023/01/25 06:19:26;;;;;;;12.50;6.80;;;;;;;-0.04;92.16;102764.05;107168;1259;71651;-78
2023/01/25 06:21:53;;;;;;;12.90;7.00;;;;;;;-0.02;92.23;102762.97;107104;1257;72401;-75
2023/01/25 06:24:20;;;;;;;12.90;7.30;;;;;;;-0.02;92.06;102760.36;107241;1258;61228;-76
2023/01/25 06:26:47;;;;;;;12.40;6.60;;;;;;;0.00;92.12;102757.49;106942;1257;61228;-74
2023/01/25 06:29:14;;;;;;;12.80;7.60;;;;;;;0.01;92.18;102761.32;107068;1257;74919;-76
2023/01/25 06:31:41;;;;;;;13.00;7.80;;;;;;;0.01;92.23;102758.36;107127;1258;71344;-75
2023/01/25 06:34:08;;;;;;;12.10;7.20;;;;;;;0.00;92.28;102757.67;107235;1257;72739;-75
2023/01/25 06:36:35;;;;;;;12.60;7.10;;;;;;;-0.02;92.29;102755.29;107188;1259;61225;-75
2023/01/25 06:39:02;;;;;;;13.00;7.60;;;;;;;-0.01;92.26;102755.96;107179;1257;61354;-75
2023/01/25 06:41:29;;;;;;;13.80;7.80;;;;;;;-0.01;92.28;102757.03;107117;1259;72876;-76
2023/01/25 06:44:03;;;;;;;14.10;7.50;;;;;;;-0.01;92.56;102754.39;106963;1259;72198;-76
2023/01/25 06:46:33;;;;;;;13.60;8.00;;;;;;;-0.01;92.29;102757.87;107057;1259;73634;-75
2023/01/25 06:49:00;;;;;;;13.90;7.80;;;;;;;-0.01;92.44;102758.77;107015;1257;61241;-76
2023/01/25 06:51:28;;;;;;;13.60;8.60;;;;;;;-0.03;92.52;102753.95;107067;1258;61184;-75
2023/01/25 06:53:55;;;;;;;13.80;7.60;;;;;;;-0.05;92.85;102753.84;106709;1259;73302;-76
2023/01/25 06:56:25;;;;;;;15.70;8.30;;;;;;;-0.07;92.74;102754.61;107064;1259;70674;-78
2023/01/25 06:58:52;;;;;;;14.30;8.40;;;;;;;-0.06;92.99;102758.05;107265;1262;72757;-76
2023/01/25 07:01:26;;;;;;;13.30;7.60;;;;;;;-0.06;93.08;102757.52;107416;1257;62202;-76
2023/01/25 07:03:55;;;;;;;13.20;7.40;;;;;;;-0.04;93.10;102756.24;108031;1257;61366;-75
2023/01/25 07:06:22;;;;;;;16.00;8.40;;;;;;;-0.04;93.11;102756.23;107083;1257;74359;-75
2023/01/25 07:08:49;;;;;;;14.40;7.70;;;;;;;-0.05;93.29;102754.02;107189;1258;70105;-75
2023/01/25 07:11:17;;;;;;;18.30;9.80;;;;;;;-0.06;93.30;102752.84;106989;1259;71424;-76
2023/01/25 07:13:46;;;;;;;18.30;10.50;;;;;;;-0.04;93.58;102753.82;106978;1259;61159;-77
2023/01/25 07:16:16;;;;;;;19.20;10.40;;;;;;;-0.02;93.96;102747.67;106843;1258;61354;-75
2023/01/25 07:18:43;;;;;;;17.80;9.20;;;;;;;-0.02;94.11;102746.98;107133;1257;74903;-75
2023/01/25 07:21:20;;;;;;;15.90;8.10;;;;;;;-0.02;94.06;102748.53;107422;1259;71847;-75
2023/01/25 07:23:48;;;;;;;16.70;8.60;;;;;;;-0.02;93.97;102746.80;106889;1257;72706;-76
2023/01/25 07:26:16;;;;;;;16.60;9.20;;;;;;;0.01;94.00;102748.63;107097;1257;61334;-76
2023/01/25 07:28:44;;;;;;;16.50;9.50;;;;;;;0.04;94.00;102744.49;107184;1257;60619;-76
2023/01/25 07:31:12;;;;;;;16.80;9.90;;;;;;;0.07;94.03;102741.44;106702;1259;74777;-76
2023/01/25 07:33:40;;;;;;;15.30;8.10;;;;;;;0.10;93.94;102743.58;106604;1257;71598;-78
2023/01/25 07:36:09;;;;;;;16.70;9.00;;;;;;;0.11;93.82;102746.66;107028;1259;72653;-76
2023/01/25 07:38:36;;;;;;;17.60;9.40;;;;;;;0.13;93.87;102744.70;107048;1257;61202;-76
2023/01/25 07:41:04;;;;;;;14.50;8.00;;;;;;;0.12;93.66;102747.32;106609;1257;61207;-78
2023/01/25 07:43:31;;;;;;;15.20;8.30;;;;;;;0.09;93.84;102750.38;106510;1257;73395;-78
2023/01/25 07:46:03;;;;;;;14.70;8.70;;;;;;;0.08;93.98;102746.08;106975;1257;70032;-78
2023/01/25 07:48:31;;;;;;;16.90;9.20;;;;;;;0.09;93.95;102747.98;106741;1259;71884;-79
2023/01/25 07:51:10;;;;;;;14.80;8.80;;;;;;;0.06;94.34;102737.45;106691;1257;61250;-79
2023/01/25 07:53:42;;;;;;;16.30;8.80;;;;;;;0.03;94.15;102736.17;106548;1262;61258;-78
2023/01/25 07:56:10;;;;;;;14.20;8.50;;;;;;;0.04;94.11;102732.30;106849;1257;74116;-78
2023/01/25 07:58:37;;;;;;;16.80;9.50;;;;;;;0.07;94.36;102730.48;107047;1257;70920;-78
2023/01/25 08:01:08;;;;;;;17.80;9.10;;;;;;;0.10;94.21;102729.13;106673;1259;72692;-78
2023/01/25 08:03:36;;;;;;;15.20;8.90;;;;;;;0.13;94.05;102730.60;106672;1259;61268;-78
2023/01/25 08:06:06;;;;;;;15.80;9.00;;;;;;;0.15;94.25;102729.64;106948;1257;60597;-75
2023/01/25 08:08:35;;;;;;;17.30;9.70;;;;;;;0.16;94.13;102727.34;106837;1257;74019;-77
2023/01/25 08:11:16;;;;;;;16.50;9.10;;;;;;;0.18;94.38;102728.30;106691;1257;70206;-76
2023/01/25 08:13:46;;;;;;;14.90;9.20;;;;;;;0.21;94.16;102726.46;106996;1257;72735;-77
2023/01/25 08:16:14;;;;;;;16.10;9.20;;;;;;;0.25;94.11;102728.57;106840;1257;61274;-76
2023/01/25 08:18:41;;;;;;;14.80;8.40;;;;;;;0.27;94.15;102727.80;106568;1258;61340;-77
2023/01/25 08:21:08;;;;;;;15.20;8.50;;;;;;;0.26;93.94;102721.58;106639;1257;73172;-77
2023/01/25 08:23:35;;;;;;;17.80;10.10;;;;;;;0.26;93.84;102721.06;106992;1257;70939;-76
2023/01/25 08:26:03;;;;;;;18.20;9.70;;;;;;;0.25;93.95;102720.38;106947;1257;72752;-75
2023/01/25 08:28:31;;;;;;;16.40;9.00;;;;;;;0.27;94.28;102719.29;106726;1257;61346;-78
2023/01/25 08:31:30;;;;;;;18.30;10.20;;;;;;;0.27;94.37;102721.35;106762;1258;61027;-76
2023/01/25 08:33:57;;;;;;;19.40;10.40;;;;;;;0.28;94.30;102717.15;107057;1257;74018;-78
2023/01/25 08:36:26;;;;;;;19.50;10.00;;;;;;;0.29;94.43;102710.66;106659;1257;71255;-77
2023/01/25 08:38:58;;;;;;;20.00;10.80;;;;;;;0.30;94.34;102703.48;106642;1257;72391;-75
2023/01/25 08:41:27;;;;;;;20.30;10.60;;;;;;;0.29;94.45;102700.55;107074;1259;59958;-77
2023/01/25 08:43:59;;;;;;;22.20;11.60;;;;;;;0.24;94.76;102700.07;106856;1257;61248;-77
2023/01/25 08:46:28;;;;;;;20.40;10.40;;;;;;;0.21;94.95;102700.54;106640;1258;72658;-76
2023/01/25 08:48:58;;;;;;;17.80;9.50;;;;;;;0.14;95.50;102703.40;106834;1257;72184;-75
2023/01/25 08:51:26;;;;;;;21.10;11.50;;;;;;;0.08;95.77;102702.43;106978;1260;72822;-76
2023/01/25 08:53:54;;;;;;;21.00;11.20;;;;;;;0.02;95.71;102698.46;106560;1259;61642;-76
2023/01/25 08:56:21;;;;;;;22.20;11.20;;;;;;;0.02;95.79;102688.56;106657;1257;61264;-76
2023/01/25 08:58:49;;;;;;;22.50;11.80;;;;;;;0.06;96.00;102681.80;106825;1259;73216;-76
2023/01/25 09:01:17;;;;;;;24.70;12.20;;;;;;;0.08;95.92;102676.48;106902;1257;71060;-76
2023/01/25 09:03:46;;;;;;;25.60;12.50;;;;;;;0.11;96.06;102676.73;106620;1258;71315;-76
2023/01/25 09:06:13;;;;;;;26.40;13.50;;;;;;;0.13;96.11;102679.61;106753;1258;62409;-78
2023/01/25 09:08:40;;;;;;;26.20;13.50;;;;;;;0.15;96.33;102677.09;107102;1257;61653;-75
2023/01/25 09:11:11;;;;;;;23.50;12.80;;;;;;;0.18;96.19;102679.56;106823;1257;75100;-76
2023/01/25 09:13:42;;;;;;;24.90;13.80;;;;;;;0.23;96.16;102669.83;106680;1258;71483;-78
2023/01/25 09:16:16;;;;;;;26.80;13.60;;;;;;;0.27;96.25;102660.45;106893;1259;71484;-77
2023/01/25 09:18:44;;;;;;;36.10;16.70;;;;;;;0.25;96.32;102657.23;106967;1258;61246;-77
2023/01/25 09:21:14;;;;;;;78.30;26.90;;;;;;;0.24;96.20;102660.58;106714;1257;61289;-76
2023/01/25 09:23:43;;;;;;;21.60;11.50;;;;;;;0.20;96.14;102668.55;106584;1258;74692;-77
2023/01/25 09:26:30;;;;;;;20.50;11.70;;;;;;;0.18;96.09;102672.64;107143;1257;69937;-77
2023/01/25 09:28:58;;;;;;;44.80;19.70;;;;;;;0.15;96.25;102678.13;106830;1257;72739;-76
2023/01/25 09:31:25;;;;;;;20.90;10.40;;;;;;;0.13;96.22;102667.44;106789;1257;61244;-78
2023/01/25 09:33:55;;;;;;;24.10;12.60;;;;;;;0.10;96.35;102662.50;106699;1261;60443;-75
2023/01/25 09:36:22;;;;;;;22.50;11.00;;;;;;;0.11;96.19;102661.23;107045;1257;74929;-77
2023/01/25 09:38:49;;;;;;;17.80;9.60;;;;;;;0.13;96.30;102658.73;107015;1257;71878;-77
2023/01/25 09:41:40;;;;;;;19.30;10.40;;;;;;;0.15;96.29;102653.43;106638;1259;71811;-77
2023/01/25 09:44:19;;;;;;;18.10;9.80;;;;;;;0.20;96.52;102649.77;106825;1258;61288;-77
2023/01/25 09:46:55;;;;;;;18.90;11.10;;;;;;;0.23;96.41;102648.79;107007;1257;60580;-78
2023/01/25 09:49:31;;;;;;;19.60;11.10;;;;;;;0.21;96.20;102643.45;106806;1259;73802;-77
2023/01/25 09:52:02;;;;;;;18.60;10.10;;;;;;;0.21;96.08;102637.56;106868;1257;71431;-76
2023/01/25 09:54:36;;;;;;;19.20;10.10;;;;;;;0.19;95.95;102627.69;106570;1257;71549;-77
2023/01/25 09:57:17;;;;;;;20.40;12.30;;;;;;;0.17;96.03;102621.32;106741;1257;61382;-76
2023/01/25 09:59:47;;;;;;;20.20;11.10;;;;;;;0.18;96.12;102620.23;107027;1257;61170;-76
2023/01/25 10:02:31;;;;;;;17.50;10.50;;;;;;;0.18;96.20;102621.83;106680;1261;74371;-77
2023/01/25 10:05:06;;;;;;;20.00;11.80;;;;;;;0.20;96.15;102621.39;107279;1257;70091;-76
2023/01/25 10:07:33;;;;;;;19.50;11.10;;;;;;;0.19;96.17;102616.55;106927;1257;71349;-78
2023/01/25 10:10:05;;;;;;;19.10;10.00;;;;;;;0.21;96.10;102613.18;106664;1257;61753;-77
2023/01/25 10:12:36;;;;;;;15.60;9.30;;;;;;;0.22;96.19;102608.96;106741;1257;61275;-73
2023/01/25 10:15:28;;;;;;;16.80;9.90;;;;;;;0.19;95.86;102608.05;106816;1259;73491;-75
2023/01/25 10:18:28;;;;;;;17.80;10.00;;;;;;;0.15;95.84;102606.09;106608;1259;70237;-75
2023/01/25 10:20:58;;;;;;;17.90;9.80;;;;;;;0.18;96.05;102606.34;106769;1259;73905;-77
2023/01/25 10:23:32;;;;;;;17.50;10.70;;;;;;;0.20;96.02;102602.95;107106;1259;61363;-77
2023/01/25 10:26:24;;;;;;;19.00;11.60;;;;;;;0.20;96.07;102602.60;106840;1259;61270;-77
2023/01/25 10:29:12;;;;;;;19.10;10.90;;;;;;;0.18;95.79;102597.11;106722;1258;74383;-78
2023/01/25 10:31:49;;;;;;;16.30;9.70;;;;;;;0.15;95.84;102585.59;106867;1257;71383;-78
2023/01/25 10:34:20;;;;;;;21.30;11.60;;;;;;;0.13;95.77;102579.58;106617;1257;70866;-78
2023/01/25 10:36:52;;;;;;;21.90;11.40;;;;;;;0.16;96.09;102572.85;106620;1257;61258;-77
2023/01/25 10:39:20;;;;;;;19.20;10.80;;;;;;;0.19;96.19;102564.02;107113;1257;61549;-77
2023/01/25 10:41:55;;;;;;;19.60;11.60;;;;;;;0.20;96.05;102557.72;106738;1259;73164;-78
2023/01/25 10:44:24;;;;;;;22.20;12.00;;;;;;;0.24;96.28;102554.10;106755;1259;70206;-76
2023/01/25 10:46:56;;;;;;;19.20;11.70;;;;;;;0.27;96.29;102552.05;106679;1257;72916;-76
2023/01/25 10:49:28;;;;;;;20.30;11.90;;;;;;;0.28;96.16;102550.92;106929;1257;62100;-78
2023/01/25 10:51:56;;;;;;;18.70;10.40;;;;;;;0.26;96.11;102551.21;106694;1258;59883;-77
2023/01/25 10:54:25;;;;;;;16.30;9.90;;;;;;;0.24;95.99;102548.16;106788;1259;73468;-78
2023/01/25 10:56:56;;;;;;;20.30;11.50;;;;;;;0.21;96.27;102544.78;107063;1257;69733;-76
2023/01/25 10:59:26;;;;;;;21.10;11.80;;;;;;;0.19;96.20;102541.56;106812;1257;72038;-77
2023/01/25 11:01:53;;;;;;;17.50;10.10;;;;;;;0.19;96.24;102540.34;106759;1259;61277;-78
2023/01/25 11:04:35;;;;;;;18.80;10.70;;;;;;;0.17;96.24;102535.89;106935;1259;61250;-79
2023/01/25 11:07:04;;;;;;;20.50;11.00;;;;;;;0.18;96.40;102534.09;106999;1257;74458;-78
2023/01/25 11:09:37;;;;;;;16.60;9.70;;;;;;;0.17;96.43;102530.69;106722;1259;69701;-77
2023/01/25 11:12:15;;;;;;;22.70;12.20;;;;;;;0.16;96.60;102524.45;106785;1260;72512;-76
2023/01/25 11:14:41;;;;;;;23.60;13.80;;;;;;;0.17;96.80;102519.38;106877;1259;62459;-76
2023/01/25 11:17:22;;;;;;;18.60;10.30;;;;;;;0.17;96.96;102516.24;106994;1259;60425;-77
2023/01/25 11:20:06;;;;;;;19.40;10.90;;;;;;;0.13;96.83;102515.71;106626;1259;73126;-78
2023/01/25 11:22:34;;;;;;;19.60;10.90;;;;;;;0.14;96.71;102519.34;106735;1259;70106;-80
2023/01/25 11:25:23;;;;;;;20.60;12.80;;;;;;;0.17;96.65;102510.86;106726;1259;72509;-78
2023/01/25 11:27:50;;;;;;;19.00;10.80;;;;;;;0.18;96.61;102508.89;106821;1259;61319;-75